Time;durP1;ratioP1;P1;durP2;ratioP2;P2;SDS_P1;SDS_P2;PMS_P1;PMS_P2;Temp;Humidity;BMP_temperature;BMP_pressure;BME280_temperature;BME280_humidity;BME280_pressure;Samples;Min_cycle;Max_cycle;Signal;HPM_P1;HPM_P2
2022/10/31 00:02:05;;;;;;;14.15;8.57;;;12.90;83.80;;;;;;5003379;28;20045;-61
2022/10/31 00:04:31;;;;;;;14.13;9.02;;;12.90;83.80;;;;;;5004143;28;20037;-61
2022/10/31 00:06:57;;;;;;;15.20;9.73;;;12.90;83.80;;;;;;5002929;28;20030;-61
2022/10/31 00:09:22;;;;;;;15.25;11.20;;;13.00;84.00;;;;;;5009467;28;20037;-61
2022/10/31 00:11:48;;;;;;;15.07;11.15;;;13.00;84.50;;;;;;5007025;28;20121;-61
2022/10/31 00:14:14;;;;;;;14.07;10.52;;;13.00;85.20;;;;;;5009338;28;20030;-60
2022/10/31 00:16:41;;;;;;;14.88;9.68;;;12.90;85.50;;;;;;5009299;28;20033;-59
2022/10/31 00:19:07;;;;;;;13.00;9.13;;;13.00;85.50;;;;;;5009519;28;20129;-60
2022/10/31 00:21:34;;;;;;;12.73;8.45;;;13.00;85.20;;;;;;5009795;28;20034;-60
2022/10/31 00:24:00;;;;;;;12.63;8.50;;;13.00;84.60;;;;;;5009356;28;20042;-60
2022/10/31 00:26:28;;;;;;;11.80;8.23;;;13.00;84.30;;;;;;5008949;28;20040;-59
2022/10/31 00:28:54;;;;;;;9.48;7.63;;;12.90;84.00;;;;;;5009373;28;20512;-61
2022/10/31 00:31:20;;;;;;;9.90;7.13;;;13.00;83.80;;;;;;5009383;28;20034;-60
2022/10/31 00:33:45;;;;;;;10.57;7.45;;;12.90;83.70;;;;;;5008222;28;20030;-61
2022/10/31 00:36:14;;;;;;;12.05;7.18;;;12.80;83.60;;;;;;5008392;28;20037;-60
2022/10/31 00:38:40;;;;;;;10.68;7.00;;;12.80;83.30;;;;;;5008100;28;20473;-61
2022/10/31 00:41:05;;;;;;;9.60;7.15;;;12.80;83.30;;;;;;5009709;28;20026;-61
2022/10/31 00:43:31;;;;;;;11.38;7.47;;;12.70;83.30;;;;;;5009398;28;20084;-61
2022/10/31 00:45:57;;;;;;;9.32;7.00;;;12.70;83.40;;;;;;5009061;28;20034;-61
2022/10/31 00:48:22;;;;;;;12.60;8.20;;;12.70;83.10;;;;;;5009578;28;20080;-61
2022/10/31 00:50:48;;;;;;;13.15;8.02;;;12.70;83.30;;;;;;5007266;28;20505;-62
2022/10/31 00:53:13;;;;;;;12.13;8.18;;;12.60;83.60;;;;;;5003441;28;20117;-60
2022/10/31 00:55:39;;;;;;;14.68;8.95;;;12.60;83.60;;;;;;5001089;28;20309;-62
2022/10/31 00:58:04;;;;;;;12.00;8.57;;;12.50;83.60;;;;;;5004260;28;22109;-61
2022/10/31 01:00:30;;;;;;;13.20;8.90;;;12.50;83.80;;;;;;5002102;28;20034;-61
2022/10/31 01:02:55;;;;;;;10.25;7.90;;;12.50;84.00;;;;;;5002053;28;20682;-61
2022/10/31 01:05:21;;;;;;;11.43;8.20;;;12.40;84.00;;;;;;5003347;28;20065;-61
2022/10/31 01:07:47;;;;;;;10.30;8.02;;;12.40;84.10;;;;;;5003356;28;20030;-61
2022/10/31 01:10:12;;;;;;;13.02;8.90;;;12.40;84.10;;;;;;5002835;28;20096;-60
2022/10/31 01:12:39;;;;;;;18.15;10.50;;;12.40;84.10;;;;;;4997388;28;20030;-61
2022/10/31 01:15:06;;;;;;;15.13;9.73;;;12.40;84.50;;;;;;5000699;28;20145;-60
2022/10/31 01:17:31;;;;;;;15.70;10.07;;;12.30;84.80;;;;;;4999473;28;20449;-61
2022/10/31 01:19:57;;;;;;;12.65;9.45;;;12.30;84.60;;;;;;5000160;28;20266;-61
2022/10/31 01:22:22;;;;;;;10.65;8.32;;;12.20;84.60;;;;;;5000834;28;20254;-59
2022/10/31 01:24:48;;;;;;;9.98;7.78;;;12.20;84.50;;;;;;5000371;28;20045;-59
2022/10/31 01:27:13;;;;;;;12.45;7.57;;;12.30;84.40;;;;;;4999309;28;20072;-61
2022/10/31 01:29:39;;;;;;;13.38;7.55;;;12.20;84.10;;;;;;5001817;28;20038;-61
2022/10/31 01:32:05;;;;;;;11.35;7.60;;;12.20;84.00;;;;;;4999241;28;20392;-61
2022/10/31 01:34:30;;;;;;;12.93;8.40;;;12.20;84.00;;;;;;5001222;28;20041;-61
2022/10/31 01:36:56;;;;;;;9.77;8.02;;;12.10;83.70;;;;;;5002857;28;20033;-60
2022/10/31 01:39:22;;;;;;;12.15;7.85;;;12.10;84.50;;;;;;5001276;28;20041;-61
2022/10/31 01:41:50;;;;;;;11.50;8.02;;;12.00;83.60;;;;;;5004305;28;20041;-59
2022/10/31 01:44:16;;;;;;;11.40;7.50;;;12.00;83.70;;;;;;5002542;28;20042;-61
2022/10/31 01:46:58;;;;;;;10.90;7.57;;;12.00;83.80;;;;;;5003415;28;20033;-61
2022/10/31 01:49:40;;;;;;;11.38;7.70;;;11.90;83.70;;;;;;5004435;28;20405;-61
2022/10/31 01:52:10;;;;;;;11.20;8.13;;;11.90;83.60;;;;;;5004221;28;20132;-61
2022/10/31 01:54:41;;;;;;;11.05;8.45;;;11.90;83.60;;;;;;5000826;28;20045;-60
2022/10/31 01:57:10;;;;;;;11.35;8.25;;;11.90;84.00;;;;;;5004520;28;20034;-60
2022/10/31 01:59:42;;;;;;;10.93;7.93;;;11.90;84.00;;;;;;5004559;28;20041;-60
2022/10/31 02:02:08;;;;;;;13.02;8.45;;;11.90;83.90;;;;;;4998119;28;20050;-61
2022/10/31 02:04:35;;;;;;;10.35;7.75;;;11.90;83.80;;;;;;4999336;28;20072;-59
2022/10/31 02:07:08;;;;;;;14.50;8.57;;;11.90;83.50;;;;;;4999446;28;20037;-61
2022/10/31 02:09:35;;;;;;;12.98;8.13;;;11.90;83.60;;;;;;5002034;28;20129;-61
2022/10/31 02:12:02;;;;;;;13.07;8.23;;;11.90;83.70;;;;;;4997516;28;20033;-60
2022/10/31 02:14:30;;;;;;;11.00;8.07;;;11.80;83.70;;;;;;4999369;28;20158;-61
2022/10/31 02:16:56;;;;;;;11.10;8.82;;;11.80;83.60;;;;;;5000569;28;20029;-61
2022/10/31 02:19:25;;;;;;;12.88;7.90;;;11.80;83.90;;;;;;5000525;28;21523;-61
2022/10/31 02:22:09;;;;;;;13.00;8.32;;;11.80;84.20;;;;;;4999646;28;20046;-61
2022/10/31 02:24:52;;;;;;;11.80;7.85;;;11.70;85.20;;;;;;5002249;28;20117;-61
2022/10/31 02:27:39;;;;;;;13.20;8.43;;;11.70;84.20;;;;;;5003604;28;20497;-61
2022/10/31 02:30:17;;;;;;;12.25;8.88;;;11.70;84.40;;;;;;4999500;28;20057;-61
2022/10/31 02:32:50;;;;;;;17.73;8.43;;;11.70;84.40;;;;;;5001110;28;20521;-60
2022/10/31 02:35:46;;;;;;;14.15;8.40;;;11.70;84.50;;;;;;5003289;28;20117;-61
2022/10/31 02:38:27;;;;;;;13.90;8.65;;;11.70;84.90;;;;;;5005803;28;20026;-62
2022/10/31 02:41:26;;;;;;;46.50;9.27;;;11.70;84.80;;;;;;5003651;28;20038;-60
2022/10/31 02:44:15;;;;;;;34.72;9.63;;;11.70;85.20;;;;;;5005555;28;20418;-61
2022/10/31 02:46:46;;;;;;;19.63;7.80;;;11.70;85.20;;;;;;5003882;28;20121;-59
2022/10/31 02:49:19;;;;;;;33.83;8.27;;;11.70;85.30;;;;;;5006022;28;20037;-59
2022/10/31 02:51:45;;;;;;;19.63;8.48;;;11.70;85.40;;;;;;5006277;28;20505;-61
2022/10/31 02:54:24;;;;;;;27.02;10.60;;;11.70;85.30;;;;;;5005741;28;20303;-60
2022/10/31 02:56:53;;;;;;;20.85;9.45;;;11.70;86.00;;;;;;5005988;28;20038;-59
2022/10/31 02:59:19;;;;;;;17.58;8.95;;;11.80;85.60;;;;;;5006341;28;20044;-61
2022/10/31 03:01:56;;;;;;;15.88;9.10;;;11.80;85.50;;;;;;5006083;28;20045;-61
2022/10/31 03:04:34;;;;;;;23.58;10.52;;;11.70;85.50;;;;;;5000368;28;20120;-59
2022/10/31 03:07:31;;;;;;;25.13;10.80;;;11.80;85.90;;;;;;4999148;28;20042;-59
2022/10/31 03:10:40;;;;;;;18.27;9.65;;;11.80;85.80;;;;;;4991251;28;20057;-61
2022/10/31 03:13:14;;;;;;;16.95;9.98;;;11.80;86.00;;;;;;4999373;28;20105;-60
2022/10/31 03:15:42;;;;;;;;;;;11.80;85.50;;;;;;5000002;28;20502;-59
2022/10/31 03:18:27;;;;;;;15.15;9.20;;;11.70;85.90;;;;;;4999824;28;19921;-60
2022/10/31 03:21:05;;;;;;;18.75;9.60;;;11.80;85.50;;;;;;4999230;28;20060;-60
2022/10/31 03:23:33;;;;;;;18.70;9.85;;;11.80;85.00;;;;;;5000880;28;20047;-59
2022/10/31 03:26:04;;;;;;;13.25;9.13;;;11.80;84.80;;;;;;4997619;28;20111;-60
2022/10/31 03:28:38;;;;;;;10.18;8.68;;;11.70;84.60;;;;;;5000636;28;20049;-60
2022/10/31 03:31:05;;;;;;;15.40;8.90;;;11.70;84.70;;;;;;4998363;28;20398;-61
2022/10/31 03:33:35;;;;;;;13.30;8.50;;;11.60;84.60;;;;;;4998473;28;20034;-60
2022/10/31 03:36:03;;;;;;;15.68;9.52;;;11.70;84.80;;;;;;4999243;28;20034;-60
2022/10/31 03:38:31;;;;;;;16.13;8.57;;;11.60;84.80;;;;;;5000305;28;20040;-61
2022/10/31 03:40:59;;;;;;;26.80;9.95;;;11.70;84.80;;;;;;5002156;28;20030;-61
2022/10/31 03:43:29;;;;;;;14.13;9.25;;;11.60;84.30;;;;;;5000743;28;20506;-59
2022/10/31 03:45:56;;;;;;;15.27;10.10;;;11.60;84.30;;;;;;5001174;28;20629;-59
2022/10/31 03:48:22;;;;;;;14.00;9.50;;;11.50;84.50;;;;;;4999249;28;20304;-59
2022/10/31 03:51:06;;;;;;;13.90;10.27;;;11.50;84.60;;;;;;5001465;28;20453;-59
2022/10/31 03:53:38;;;;;;;20.37;14.23;;;11.50;84.70;;;;;;5002985;28;20137;-60
2022/10/31 03:56:21;;;;;;;15.50;11.82;;;11.50;84.70;;;;;;5005226;28;20408;-60
2022/10/31 03:58:58;;;;;;;19.83;13.07;;;11.50;84.90;;;;;;5003701;28;20052;-61
2022/10/31 04:01:25;;;;;;;44.08;26.20;;;11.50;84.60;;;;;;5004678;28;20045;-60
2022/10/31 04:03:51;;;;;;;71.38;36.22;;;11.50;84.60;;;;;;5003796;28;22006;-60
2022/10/31 04:06:20;;;;;;;49.88;27.65;;;11.50;84.60;;;;;;5005189;28;20030;-61
2022/10/31 04:08:51;;;;;;;45.30;25.42;;;11.50;84.60;;;;;;4998964;28;20541;-60
2022/10/31 04:11:21;;;;;;;68.68;35.20;;;11.50;84.70;;;;;;5000777;28;20042;-60
2022/10/31 04:13:48;;;;;;;87.32;41.55;;;11.40;84.60;;;;;;5000054;28;20576;-60
2022/10/31 04:16:15;;;;;;;77.75;40.33;;;11.50;84.50;;;;;;5003617;28;21283;-60
2022/10/31 04:18:41;;;;;;;72.13;39.53;;;11.50;84.60;;;;;;4999814;28;20042;-60
2022/10/31 04:21:07;;;;;;;71.38;29.17;;;11.50;84.80;;;;;;5003485;28;20037;-61
2022/10/31 04:23:35;;;;;;;50.47;23.88;;;11.50;85.10;;;;;;5002470;28;20425;-62
2022/10/31 04:26:01;;;;;;;50.50;24.00;;;11.50;84.90;;;;;;5002477;28;20190;-60
2022/10/31 04:28:27;;;;;;;39.33;21.63;;;11.50;84.80;;;;;;4999899;28;20116;-61
2022/10/31 04:30:52;;;;;;;28.95;18.23;;;11.40;84.80;;;;;;5006072;28;20094;-60
2022/10/31 04:33:18;;;;;;;28.30;17.77;;;11.40;84.80;;;;;;5005392;28;20046;-61
2022/10/31 04:35:44;;;;;;;27.98;18.23;;;11.40;84.90;;;;;;5006170;28;20034;-61
2022/10/31 04:38:09;;;;;;;18.45;13.32;;;11.40;85.00;;;;;;5003542;28;20189;-60
2022/10/31 04:40:35;;;;;;;19.08;12.73;;;11.40;85.10;;;;;;5002651;28;20456;-60
2022/10/31 04:43:00;;;;;;;23.45;12.00;;;11.40;85.10;;;;;;5006013;28;20045;-61
2022/10/31 04:45:26;;;;;;;14.25;11.23;;;11.40;85.20;;;;;;5003075;28;20499;-61
2022/10/31 04:47:52;;;;;;;13.50;10.68;;;11.40;85.30;;;;;;5004895;28;20570;-61
2022/10/31 04:50:17;;;;;;;14.05;10.98;;;11.40;85.20;;;;;;5013158;28;20030;-60
2022/10/31 04:52:44;;;;;;;15.93;11.65;;;11.40;86.00;;;;;;5004598;28;20046;-60
2022/10/31 04:55:11;;;;;;;14.43;11.20;;;11.40;85.00;;;;;;5002523;28;20042;-60
2022/10/31 04:57:48;;;;;;;17.33;11.30;;;11.50;85.00;;;;;;5004197;28;20030;-61
2022/10/31 05:00:15;;;;;;;20.15;12.27;;;11.50;85.10;;;;;;5002801;28;20048;-61
2022/10/31 05:02:53;;;;;;;22.85;11.50;;;11.50;85.00;;;;;;5005990;28;20512;-60
2022/10/31 05:05:21;;;;;;;21.98;10.77;;;11.50;85.10;;;;;;5001876;28;20045;-61
2022/10/31 05:07:48;;;;;;;12.23;10.75;;;11.50;85.00;;;;;;5003613;28;20413;-60
2022/10/31 05:10:17;;;;;;;20.00;10.93;;;11.40;85.20;;;;;;5000716;28;20573;-61
2022/10/31 05:12:53;;;;;;;13.95;10.13;;;11.40;85.30;;;;;;4996762;28;20445;-60
2022/10/31 05:15:21;;;;;;;14.98;10.70;;;11.40;85.70;;;;;;5000311;28;20038;-61
2022/10/31 05:17:47;;;;;;;15.95;10.43;;;11.40;85.70;;;;;;5006067;28;20041;-59
2022/10/31 05:20:14;;;;;;;27.27;13.52;;;11.40;85.80;;;;;;5003799;28;20045;-60
2022/10/31 05:22:48;;;;;;;19.52;11.63;;;11.40;85.90;;;;;;5002267;28;20461;-61
2022/10/31 05:25:14;;;;;;;25.27;13.80;;;11.40;86.00;;;;;;5003210;28;20038;-61
2022/10/31 05:27:44;;;;;;;12.98;10.75;;;11.50;85.90;;;;;;5005681;28;20125;-61
2022/10/31 05:30:12;;;;;;;14.63;9.80;;;11.50;86.00;;;;;;5002477;28;20705;-60
2022/10/31 05:32:39;;;;;;;23.88;13.48;;;11.50;86.00;;;;;;5002700;28;20074;-62
2022/10/31 05:35:08;;;;;;;21.88;12.88;;;11.50;86.00;;;;;;4997117;28;20571;-59
2022/10/31 05:37:34;;;;;;;21.95;12.63;;;11.50;86.00;;;;;;5005907;28;20125;-60
2022/10/31 05:39:59;;;;;;;37.50;9.98;;;11.50;86.00;;;;;;5002699;28;20034;-61
2022/10/31 05:42:25;;;;;;;36.08;10.30;;;11.60;86.00;;;;;;5003754;28;20080;-59
2022/10/31 05:44:50;;;;;;;31.83;12.43;;;11.50;85.90;;;;;;5004339;28;20126;-61
2022/10/31 05:47:16;;;;;;;36.25;10.73;;;11.50;85.90;;;;;;5002391;28;20034;-60
2022/10/31 05:49:42;;;;;;;11.32;9.10;;;11.60;86.00;;;;;;5002531;28;20533;-59
2022/10/31 05:52:07;;;;;;;11.63;9.60;;;11.60;85.90;;;;;;5000820;28;20461;-59
2022/10/31 05:54:33;;;;;;;10.70;9.60;;;11.50;85.90;;;;;;5004975;28;20042;-62
2022/10/31 05:56:58;;;;;;;11.57;10.38;;;11.50;85.80;;;;;;5006071;28;20041;-61
2022/10/31 05:59:24;;;;;;;34.35;18.52;;;11.50;85.70;;;;;;5007060;28;20037;-60
2022/10/31 06:01:49;;;;;;;22.42;15.77;;;11.60;85.40;;;;;;5007768;28;20564;-60
2022/10/31 06:04:15;;;;;;;26.58;16.25;;;11.50;85.30;;;;;;5005908;28;20088;-61
2022/10/31 06:06:40;;;;;;;23.65;15.95;;;11.50;85.30;;;;;;5000122;28;20548;-61
2022/10/31 06:09:06;;;;;;;23.55;15.05;;;11.50;85.40;;;;;;4999137;28;20044;-62
2022/10/31 06:11:31;;;;;;;22.90;15.10;;;11.50;85.30;;;;;;4996918;28;20034;-60
2022/10/31 06:13:57;;;;;;;20.67;15.02;;;11.50;85.30;;;;;;4998723;28;20041;-60
2022/10/31 06:16:23;;;;;;;16.80;13.30;;;11.50;85.20;;;;;;4996329;28;20091;-61
2022/10/31 06:18:48;;;;;;;15.57;11.77;;;11.50;85.20;;;;;;4998679;28;20103;-61
2022/10/31 06:21:14;;;;;;;17.10;11.05;;;11.50;85.10;;;;;;5000201;28;20030;-59
2022/10/31 06:23:39;;;;;;;11.25;10.05;;;11.50;85.00;;;;;;4998906;28;20879;-61
2022/10/31 06:26:05;;;;;;;13.80;10.20;;;11.50;85.00;;;;;;4995997;28;20042;-60
2022/10/31 06:28:30;;;;;;;13.05;10.10;;;11.40;85.00;;;;;;5002535;28;20087;-61
2022/10/31 06:30:56;;;;;;;13.98;10.20;;;11.50;85.00;;;;;;4986469;28;20185;-61
2022/10/31 06:33:22;;;;;;;14.50;10.88;;;11.50;85.00;;;;;;4988761;28;20038;-61
2022/10/31 06:35:47;;;;;;;18.30;11.38;;;11.50;85.00;;;;;;4982983;28;20037;-61
2022/10/31 06:38:14;;;;;;;14.63;9.90;;;11.30;84.90;;;;;;4987400;28;20038;-60
2022/10/31 06:40:39;;;;;;;19.23;10.38;;;11.50;85.00;;;;;;4978956;28;20593;-61
2022/10/31 06:43:05;;;;;;;11.35;10.07;;;11.40;84.90;;;;;;4993772;28;20030;-59
2022/10/31 06:45:31;;;;;;;12.40;10.07;;;11.40;84.90;;;;;;4981409;28;20054;-61
2022/10/31 06:47:56;;;;;;;15.27;11.38;;;11.40;85.20;;;;;;4990861;28;20401;-59
2022/10/31 06:50:23;;;;;;;21.63;14.65;;;11.50;85.40;;;;;;4983802;28;20038;-61
2022/10/31 06:52:57;;;;;;;27.23;15.82;;;11.40;85.50;;;;;;4984332;28;20534;-60
2022/10/31 06:55:24;;;;;;;43.27;20.53;;;11.40;85.70;;;;;;4992818;28;20054;-60
2022/10/31 06:57:57;;;;;;;38.03;20.55;;;11.40;85.70;;;;;;4987663;28;20041;-61
2022/10/31 07:00:23;;;;;;;32.47;20.17;;;11.40;85.90;;;;;;4994238;28;20532;-59
2022/10/31 07:02:57;;;;;;;35.25;17.17;;;11.50;85.90;;;;;;4995324;28;20128;-61
2022/10/31 07:05:23;;;;;;;17.88;13.70;;;11.50;86.20;;;;;;4991098;28;20537;-57
2022/10/31 07:07:53;;;;;;;22.60;14.73;;;11.50;86.10;;;;;;4998167;28;20129;-56
2022/10/31 07:10:18;;;;;;;21.77;15.63;;;11.50;86.40;;;;;;5004051;28;20053;-59
2022/10/31 07:12:44;;;;;;;21.02;15.55;;;11.60;86.40;;;;;;5000205;28;20122;-59
2022/10/31 07:15:09;;;;;;;23.77;14.38;;;11.60;86.40;;;;;;5004276;28;20057;-59
2022/10/31 07:17:35;;;;;;;19.30;12.57;;;11.60;86.50;;;;;;5004031;28;20533;-61
2022/10/31 07:20:00;;;;;;;17.88;11.30;;;11.60;86.60;;;;;;5006216;28;20033;-61
2022/10/31 07:22:35;;;;;;;15.55;11.30;;;11.70;86.60;;;;;;5005110;28;20100;-61
2022/10/31 07:25:01;;;;;;;;;;;11.70;86.90;;;;;;5005065;28;20038;-61
2022/10/31 07:27:26;;;;;;;18.55;8.75;;;11.80;87.20;;;;;;5003880;28;19917;-60
2022/10/31 07:29:52;;;;;;;42.65;9.18;;;11.80;86.50;;;;;;5004909;28;20038;-60
2022/10/31 07:32:18;;;;;;;36.65;8.13;;;11.80;86.60;;;;;;5004974;28;20064;-57
2022/10/31 07:34:43;;;;;;;20.40;8.88;;;11.80;86.60;;;;;;5001807;28;20034;-60
2022/10/31 07:37:09;;;;;;;19.40;8.75;;;11.90;86.70;;;;;;5004153;28;20037;-59
2022/10/31 07:39:34;;;;;;;23.80;9.13;;;11.90;86.90;;;;;;5003986;28;20030;-59
2022/10/31 07:42:00;;;;;;;41.65;9.13;;;11.90;87.10;;;;;;5004883;28;20038;-60
2022/10/31 07:44:26;;;;;;;33.03;9.13;;;11.90;87.30;;;;;;5005358;28;20556;-60
2022/10/31 07:46:51;;;;;;;21.92;9.40;;;12.00;87.40;;;;;;5008002;28;20460;-62
2022/10/31 07:49:17;;;;;;;17.65;9.13;;;12.00;87.50;;;;;;5010050;28;20034;-59
2022/10/31 07:51:42;;;;;;;30.77;10.65;;;12.10;87.80;;;;;;5009453;28;20594;-60
2022/10/31 07:54:08;;;;;;;38.45;10.07;;;12.10;87.90;;;;;;5007243;28;20226;-60
2022/10/31 07:56:33;;;;;;;29.15;10.35;;;12.10;88.10;;;;;;5007703;28;20038;-59
2022/10/31 07:58:59;;;;;;;28.92;9.55;;;12.20;88.10;;;;;;5009018;28;20065;-60
2022/10/31 08:01:24;;;;;;;13.95;9.60;;;12.20;88.20;;;;;;5007795;28;20476;-61
2022/10/31 08:03:50;;;;;;;14.35;9.35;;;12.30;88.30;;;;;;5007533;28;20038;-62
2022/10/31 08:06:15;;;;;;;22.15;9.63;;;12.40;88.50;;;;;;5003216;28;20103;-60
2022/10/31 08:08:42;;;;;;;37.25;10.45;;;12.40;88.50;;;;;;5005168;28;20141;-61
2022/10/31 08:11:08;;;;;;;42.25;11.07;;;12.50;88.50;;;;;;5005211;28;20488;-60
2022/10/31 08:13:33;;;;;;;20.25;10.13;;;12.50;88.40;;;;;;5007146;28;20111;-61
2022/10/31 08:16:03;;;;;;;16.42;9.90;;;12.60;88.30;;;;;;5008287;28;20034;-62
2022/10/31 08:18:29;;;;;;;18.50;9.32;;;12.60;88.30;;;;;;5007607;28;20042;-61
2022/10/31 08:20:55;;;;;;;13.05;8.98;;;12.60;88.30;;;;;;5006861;28;20398;-62
2022/10/31 08:23:21;;;;;;;15.57;8.60;;;12.70;88.40;;;;;;5008087;28;20037;-59
2022/10/31 08:25:49;;;;;;;16.00;8.93;;;12.70;88.50;;;;;;4996426;28;20516;-60
2022/10/31 08:28:15;;;;;;;11.85;8.30;;;12.80;88.50;;;;;;5009645;28;20047;-59
2022/10/31 08:30:41;;;;;;;19.08;9.32;;;12.80;88.50;;;;;;5006846;28;20042;-61
2022/10/31 08:33:15;;;;;;;9.75;8.75;;;12.80;88.60;;;;;;5007277;28;20109;-60
2022/10/31 08:35:41;;;;;;;11.27;8.93;;;12.90;88.80;;;;;;5002113;28;20465;-61
2022/10/31 08:38:09;;;;;;;15.18;9.23;;;12.90;88.60;;;;;;5000122;28;20041;-62
2022/10/31 08:40:35;;;;;;;10.32;8.70;;;13.00;88.70;;;;;;5000007;28;20026;-61
2022/10/31 08:43:06;;;;;;;16.20;8.43;;;13.00;88.70;;;;;;5001275;28;20053;-61
2022/10/31 08:45:33;;;;;;;10.38;9.10;;;13.00;88.80;;;;;;5000721;28;20192;-61
2022/10/31 08:48:04;;;;;;;12.98;9.40;;;13.00;88.70;;;;;;5002908;28;20409;-59
2022/10/31 08:50:33;;;;;;;11.30;8.57;;;13.10;88.80;;;;;;5002882;28;20041;-59
2022/10/31 08:53:18;;;;;;;13.80;9.27;;;13.20;88.80;;;;;;5005907;28;20092;-61
2022/10/31 08:55:45;;;;;;;12.30;9.40;;;13.20;89.30;;;;;;5005996;28;20469;-61
2022/10/31 08:58:13;;;;;;;10.40;8.95;;;13.30;89.70;;;;;;5006631;28;20121;-60
2022/10/31 09:00:39;;;;;;;13.82;9.40;;;13.30;89.00;;;;;;5006558;28;20033;-61
2022/10/31 09:03:08;;;;;;;11.52;8.90;;;13.40;89.00;;;;;;5000700;28;20571;-61
2022/10/31 09:05:34;;;;;;;12.45;9.40;;;13.40;89.00;;;;;;5007487;28;20045;-60
2022/10/31 09:08:02;;;;;;;11.02;8.93;;;13.50;89.00;;;;;;5007381;28;20033;-61
2022/10/31 09:10:29;;;;;;;15.18;11.30;;;13.50;89.00;;;;;;5005910;28;20045;-61
2022/10/31 09:13:00;;;;;;;12.65;11.07;;;13.60;89.10;;;;;;5006018;28;20299;-61
2022/10/31 09:15:26;;;;;;;14.13;10.63;;;13.60;89.90;;;;;;5007653;28;20412;-61
2022/10/31 09:17:52;;;;;;;12.05;10.63;;;13.80;89.10;;;;;;5008387;28;20029;-62
2022/10/31 09:20:19;;;;;;;14.73;11.18;;;13.80;89.00;;;;;;5007336;28;20030;-61
2022/10/31 09:22:44;;;;;;;16.73;11.32;;;13.80;89.00;;;;;;5005676;28;20092;-61
2022/10/31 09:25:10;;;;;;;15.63;9.88;;;13.90;88.90;;;;;;5007138;28;20038;-61
2022/10/31 09:27:36;;;;;;;13.20;9.50;;;14.00;88.80;;;;;;5008394;28;20034;-60
2022/10/31 09:30:02;;;;;;;13.02;9.38;;;14.00;88.80;;;;;;5007976;28;20117;-60
2022/10/31 09:32:28;;;;;;;17.10;9.25;;;14.10;88.80;;;;;;5005464;28;20460;-61
2022/10/31 09:34:53;;;;;;;12.50;8.68;;;14.20;88.70;;;;;;5007412;28;20046;-61
2022/10/31 09:37:19;;;;;;;13.55;9.68;;;14.30;88.40;;;;;;5006872;28;20050;-61
2022/10/31 09:39:44;;;;;;;17.80;13.23;;;14.40;88.20;;;;;;5008065;28;20133;-59
2022/10/31 09:42:54;;;;;;;12.75;11.38;;;14.40;88.30;;;;;;5006344;28;20033;-61
2022/10/31 09:45:36;;;;;;;14.15;11.93;;;14.50;88.70;;;;;;4992666;28;20056;-61
2022/10/31 09:48:49;;;;;;;15.68;11.63;;;14.60;88.60;;;;;;5007259;28;20087;-62
2022/10/31 09:51:25;;;;;;;12.68;10.10;;;14.70;88.80;;;;;;4990901;28;20157;-61
2022/10/31 09:53:58;;;;;;;11.82;9.68;;;14.70;88.30;;;;;;5008442;28;20034;-61
2022/10/31 09:56:26;;;;;;;13.65;8.55;;;14.80;88.30;;;;;;5008928;28;20092;-62
2022/10/31 09:58:55;;;;;;;11.27;8.38;;;14.80;88.30;;;;;;5008633;28;20042;-61
2022/10/31 10:01:37;;;;;;;9.27;8.32;;;14.90;88.50;;;;;;5008855;28;20390;-61
2022/10/31 10:04:19;;;;;;;9.52;8.38;;;15.00;88.80;;;;;;5008858;28;20048;-60
2022/10/31 10:06:49;;;;;;;11.25;8.27;;;15.00;88.70;;;;;;5006705;28;20034;-61
2022/10/31 10:09:15;;;;;;;8.95;8.05;;;15.10;88.30;;;;;;5006638;28;20034;-62
2022/10/31 10:11:54;;;;;;;10.02;8.23;;;15.10;88.30;;;;;;5002082;28;20036;-62
2022/10/31 10:14:34;;;;;;;10.73;8.02;;;15.20;88.50;;;;;;5007393;28;20049;-61
2022/10/31 10:17:02;;;;;;;13.00;7.60;;;15.20;88.30;;;;;;5005870;28;20441;-62
2022/10/31 10:20:01;;;;;;;11.60;8.07;;;15.30;88.10;;;;;;5006504;28;20038;-61
2022/10/31 10:22:41;;;;;;;11.57;7.40;;;15.30;87.70;;;;;;5003832;28;20045;-61
2022/10/31 10:25:23;;;;;;;9.15;7.03;;;15.40;87.10;;;;;;5006688;28;20042;-60
2022/10/31 10:28:10;;;;;;;13.45;8.40;;;15.40;87.00;;;;;;5005108;28;20037;-62
2022/10/31 10:31:00;;;;;;;13.25;8.20;;;15.40;86.70;;;;;;5006495;28;20046;-60
2022/10/31 10:34:01;;;;;;;12.50;8.48;;;15.40;86.40;;;;;;5004140;28;20038;-62
2022/10/31 10:36:35;;;;;;;11.52;7.38;;;15.50;86.50;;;;;;5004690;28;20517;-61
2022/10/31 10:39:09;;;;;;;14.10;7.63;;;15.50;86.30;;;;;;5007069;28;20038;-62
2022/10/31 10:41:34;;;;;;;16.65;9.35;;;15.50;86.40;;;;;;5006273;28;20490;-61
2022/10/31 10:44:00;;;;;;;15.27;9.15;;;15.60;86.60;;;;;;5006446;28;20056;-60
2022/10/31 10:49:40;;;;;;;15.57;9.73;;;15.60;86.50;;;;;;5005999;28;20045;-59
2022/10/31 10:52:13;;;;;;;14.35;10.02;;;15.70;86.90;;;;;;5005891;28;20109;-60
2022/10/31 10:54:59;;;;;;;18.38;10.98;;;15.70;86.90;;;;;;5005692;28;20439;-61
2022/10/31 10:57:42;;;;;;;15.80;11.15;;;15.80;87.20;;;;;;5004838;28;20402;-62
2022/10/31 11:00:18;;;;;;;20.33;12.82;;;15.80;87.60;;;;;;5007170;28;20030;-61
2022/10/31 11:02:44;;;;;;;23.67;13.40;;;15.90;87.70;;;;;;5004333;28;20049;-62
2022/10/31 11:05:34;;;;;;;22.15;13.88;;;16.00;87.60;;;;;;5006835;28;20527;-61
2022/10/31 11:08:00;;;;;;;23.50;15.90;;;16.00;87.80;;;;;;5006157;28;20038;-62
2022/10/31 11:10:26;;;;;;;22.77;16.13;;;16.10;87.60;;;;;;5014931;28;20041;-61
2022/10/31 11:13:20;;;;;;;22.38;14.68;;;16.10;87.40;;;;;;5002205;28;20117;-62
2022/10/31 11:16:06;;;;;;;23.92;15.18;;;16.30;87.50;;;;;;5005900;28;20034;-59
2022/10/31 11:18:36;;;;;;;22.17;16.40;;;16.30;87.50;;;;;;5005058;28;20049;-61
2022/10/31 11:21:04;;;;;;;25.98;16.60;;;16.40;87.40;;;;;;5004197;28;20033;-59
2022/10/31 11:23:30;;;;;;;25.77;16.58;;;16.40;88.10;;;;;;5005308;28;20383;-62
2022/10/31 11:26:04;;;;;;;24.38;17.00;;;16.50;87.40;;;;;;5006078;28;20038;-62
2022/10/31 11:28:34;;;;;;;26.70;18.05;;;16.50;87.40;;;;;;5004258;28;20498;-61
2022/10/31 11:31:06;;;;;;;25.42;17.40;;;16.60;87.50;;;;;;5004804;28;20042;-61
2022/10/31 11:33:36;;;;;;;29.85;18.77;;;16.70;87.40;;;;;;5005885;28;20116;-61
2022/10/31 11:36:14;;;;;;;27.50;18.95;;;16.80;87.40;;;;;;5004553;28;20572;-62
2022/10/31 11:38:42;;;;;;;24.75;17.30;;;16.90;87.30;;;;;;5003703;28;20133;-61
2022/10/31 11:41:17;;;;;;;28.92;18.40;;;16.90;87.00;;;;;;5005383;28;20042;-60
2022/10/31 11:43:53;;;;;;;28.80;17.45;;;17.00;87.10;;;;;;5005623;28;20040;-61
2022/10/31 11:46:24;;;;;;;24.83;16.80;;;17.00;87.20;;;;;;5005069;28;20045;-61
2022/10/31 11:48:52;;;;;;;25.58;15.65;;;17.00;87.00;;;;;;5004111;28;20042;-61
2022/10/31 11:51:28;;;;;;;21.95;14.57;;;17.10;87.20;;;;;;5004438;28;20033;-61
2022/10/31 11:53:58;;;;;;;20.40;14.07;;;17.20;87.30;;;;;;5004353;28;20401;-60
2022/10/31 11:56:24;;;;;;;19.50;13.57;;;17.20;87.00;;;;;;5005060;28;20505;-61
2022/10/31 11:59:03;;;;;;;21.92;13.95;;;17.30;86.70;;;;;;5005324;28;20042;-61
2022/10/31 12:01:32;;;;;;;21.13;13.95;;;17.40;86.40;;;;;;5005806;28;20527;-60
2022/10/31 12:04:12;;;;;;;21.67;14.82;;;17.40;86.20;;;;;;5004702;28;20181;-62
2022/10/31 12:06:40;;;;;;;21.13;15.60;;;17.50;86.00;;;;;;5003869;28;20417;-60
2022/10/31 12:09:20;;;;;;;22.30;15.70;;;17.60;86.20;;;;;;5006049;28;20038;-61
2022/10/31 12:12:02;;;;;;;24.02;14.75;;;17.60;85.90;;;;;;5004305;28;20194;-59
2022/10/31 12:14:37;;;;;;;20.00;14.27;;;17.60;85.70;;;;;;5006798;28;20049;-61
2022/10/31 12:17:22;;;;;;;20.60;14.02;;;17.70;85.50;;;;;;5007243;28;20090;-60
2022/10/31 12:19:59;;;;;;;23.40;14.27;;;17.70;85.30;;;;;;5007409;28;20034;-62
2022/10/31 12:22:43;;;;;;;20.13;14.68;;;17.80;85.10;;;;;;5007023;28;20089;-61
2022/10/31 12:25:09;;;;;;;22.67;14.03;;;17.80;85.00;;;;;;5006238;28;20042;-61
2022/10/31 12:27:49;;;;;;;20.00;14.60;;;17.90;85.00;;;;;;5007614;28;20081;-61
2022/10/31 12:30:31;;;;;;;22.33;14.73;;;17.90;84.60;;;;;;5007229;28;20185;-61
2022/10/31 12:33:19;;;;;;;20.58;14.18;;;17.90;84.20;;;;;;5008442;28;20034;-62
2022/10/31 12:35:49;;;;;;;18.63;14.07;;;18.00;84.30;;;;;;5009527;28;20053;-62
2022/10/31 12:38:33;;;;;;;21.05;14.18;;;18.00;84.70;;;;;;5008077;28;20041;-60
2022/10/31 12:41:32;;;;;;;22.20;14.27;;;18.00;83.10;;;;;;5006754;28;20555;-61
2022/10/31 12:44:14;;;;;;;18.42;13.95;;;18.00;83.30;;;;;;5008822;28;20493;-62
2022/10/31 12:46:42;;;;;;;21.83;13.25;;;18.00;83.10;;;;;;5005716;28;20117;-62
2022/10/31 12:49:37;;;;;;;21.95;13.30;;;18.10;83.40;;;;;;5009181;28;20030;-62
2022/10/31 12:52:15;;;;;;;23.05;13.48;;;18.10;82.80;;;;;;5007483;28;20460;-61
2022/10/31 12:55:13;;;;;;;22.85;13.95;;;18.10;83.10;;;;;;5008229;28;20038;-61